Time;durP1;ratioP1;P1;durP2;ratioP2;P2;SDS_P1;SDS_P2;PMS_P1;PMS_P2;Temp;Humidity;BMP_temperature;BMP_pressure;BME280_temperature;BME280_humidity;BME280_pressure;Samples;Min_cycle;Max_cycle;Signal;HPM_P1;HPM_P2
2024/01/06 00:01:23;;;;;;;9.80;5.57;;;2.10;99.90;;;;;;4137862;28;20055;-85
2024/01/06 00:03:29;;;;;;;8.93;5.43;;;3.10;99.90;;;;;;4138994;28;20129;-85
2024/01/06 00:05:31;;;;;;;11.30;5.80;;;2.00;99.90;;;;;;4138626;28;20557;-85
2024/01/06 00:07:33;;;;;;;11.35;5.95;;;2.00;99.90;;;;;;4138475;28;20038;-85
2024/01/06 00:09:34;;;;;;;11.40;5.05;;;3.30;99.90;;;;;;4138872;28;20109;-85
2024/01/06 00:11:35;;;;;;;8.52;5.35;;;3.10;99.90;;;;;;4120767;28;20107;-85
2024/01/06 00:13:37;;;;;;;12.20;5.68;;;3.10;99.90;;;;;;4137719;28;20526;-85
2024/01/06 00:15:38;;;;;;;9.32;4.95;;;2.00;99.90;;;;;;4137269;28;20529;-85
2024/01/06 00:17:40;;;;;;;9.70;4.90;;;2.40;99.90;;;;;;4139069;28;20418;-85
2024/01/06 00:19:43;;;;;;;7.40;4.30;;;2.00;99.90;;;;;;4138381;28;20126;-85
2024/01/06 00:21:45;;;;;;;9.60;5.28;;;2.50;99.90;;;;;;4138334;28;20090;-84
2024/01/06 00:23:46;;;;;;;9.98;5.63;;;2.40;99.90;;;;;;4138350;28;20069;-85
2024/01/06 00:25:48;;;;;;;8.35;4.90;;;2.60;99.90;;;;;;4138177;28;20399;-85
2024/01/06 00:27:49;;;;;;;12.07;5.50;;;2.90;99.90;;;;;;4138142;28;20127;-85
2024/01/06 00:29:50;;;;;;;9.10;4.70;;;;;;;;;;4138275;28;20050;-85
2024/01/06 00:31:52;;;;;;;10.05;5.30;;;2.00;99.90;;;;;;4137300;28;20045;-85
2024/01/06 00:33:54;;;;;;;9.65;5.43;;;2.40;99.90;;;;;;4136950;28;20043;-85
2024/01/06 00:35:55;;;;;;;10.30;5.97;;;2.60;99.90;;;;;;4137353;28;20070;-85
2024/01/06 00:38:00;;;;;;;8.15;4.57;;;2.90;99.90;;;;;;4120083;28;20119;-85
2024/01/06 00:40:01;;;;;;;8.73;5.28;;;1.40;99.90;;;;;;4138140;28;20038;-85
2024/01/06 00:42:01;;;;;;;7.95;4.70;;;3.20;99.90;;;;;;4137346;28;20113;-85
2024/01/06 00:44:03;;;;;;;10.63;5.45;;;2.00;99.90;;;;;;4119843;28;20552;-85
2024/01/06 00:46:05;;;;;;;9.93;5.30;;;2.00;99.90;;;;;;4138095;28;20054;-85
2024/01/06 00:48:06;;;;;;;9.50;5.32;;;3.30;99.90;;;;;;4139986;28;20054;-85
2024/01/06 00:50:07;;;;;;;8.80;5.35;;;2.00;99.90;;;;;;4142781;28;20041;-85
2024/01/06 00:52:09;;;;;;;8.50;4.90;;;2.00;99.90;;;;;;4156115;28;20509;-85
2024/01/06 00:54:11;;;;;;;11.95;4.63;;;3.20;99.90;;;;;;4156718;28;20084;-85
2024/01/06 00:56:12;;;;;;;9.40;5.30;;;3.00;99.90;;;;;;4156085;28;20060;-85
2024/01/06 00:58:14;;;;;;;10.95;6.10;;;3.10;99.90;;;;;;4143353;28;20053;-85
2024/01/06 01:00:17;;;;;;;8.18;4.60;;;3.00;99.90;;;;;;4140274;28;20501;-85
2024/01/06 01:02:18;;;;;;;9.45;5.10;;;2.20;99.90;;;;;;4140204;28;20047;-84
2024/01/06 01:04:20;;;;;;;11.18;5.35;;;2.00;99.90;;;;;;4140486;28;20054;-85
2024/01/06 01:06:27;;;;;;;10.70;5.30;;;3.00;99.90;;;;;;4140102;28;20042;-85
2024/01/06 01:08:30;;;;;;;10.63;5.70;;;2.40;99.90;;;;;;4139296;28;20042;-85
2024/01/06 01:10:32;;;;;;;8.50;4.80;;;2.20;99.90;;;;;;4140191;28;20042;-85
2024/01/06 01:12:33;;;;;;;8.65;4.65;;;2.00;99.90;;;;;;4140018;28;20092;-85
2024/01/06 01:14:34;;;;;;;7.95;5.07;;;2.40;99.90;;;;;;4140440;28;20050;-84
2024/01/06 01:16:35;;;;;;;8.48;4.65;;;2.10;99.90;;;;;;4140487;28;20045;-84
2024/01/06 01:18:41;;;;;;;11.70;5.53;;;2.40;99.90;;;;;;4123714;28;20142;-84
2024/01/06 01:20:42;;;;;;;9.95;4.82;;;3.20;99.90;;;;;;4139918;28;20066;-84
2024/01/06 01:22:44;;;;;;;9.05;4.80;;;2.40;99.90;;;;;;4141190;28;20112;-84
2024/01/06 01:24:44;;;;;;;10.73;5.65;;;2.40;99.90;;;;;;4150272;28;20034;-84
2024/01/06 01:26:46;;;;;;;11.20;6.20;;;2.80;99.90;;;;;;4153180;28;20046;-85
2024/01/06 01:28:48;;;;;;;9.50;5.53;;;2.90;99.90;;;;;;4152869;28;20045;-85
2024/01/06 01:30:48;;;;;;;7.22;4.38;;;2.30;99.90;;;;;;4136792;28;20039;-84
2024/01/06 01:32:50;;;;;;;8.43;5.00;;;3.00;99.90;;;;;;4136332;28;20047;-85
2024/01/06 01:34:51;;;;;;;9.68;5.22;;;2.90;99.90;;;;;;4152213;28;20106;-85
2024/01/06 01:36:53;;;;;;;10.32;5.50;;;1.90;99.90;;;;;;4151910;28;20047;-85
2024/01/06 01:38:55;;;;;;;7.50;4.25;;;2.00;99.90;;;;;;4149866;28;20085;-85
2024/01/06 01:40:59;;;;;;;12.00;5.00;;;2.10;99.90;;;;;;4123760;28;20114;-85
2024/01/06 01:43:03;;;;;;;9.68;4.40;;;2.80;99.90;;;;;;4140569;28;20050;-85
2024/01/06 01:45:05;;;;;;;9.73;4.72;;;1.80;99.90;;;;;;4139673;28;20046;-84
2024/01/06 01:47:06;;;;;;;9.18;4.93;;;1.70;99.90;;;;;;4139899;28;20074;-85
2024/01/06 01:49:08;;;;;;;9.88;4.53;;;1.80;99.90;;;;;;4140027;28;20064;-84
2024/01/06 01:51:12;;;;;;;9.23;4.60;;;2.50;99.90;;;;;;4140003;28;20121;-84
2024/01/06 01:53:13;;;;;;;9.60;5.45;;;3.10;99.90;;;;;;4128964;28;20050;-85
2024/01/06 01:55:14;;;;;;;10.80;5.00;;;2.80;99.90;;;;;;4130512;28;20058;-85
2024/01/06 01:57:16;;;;;;;10.77;4.95;;;2.60;99.90;;;;;;4122519;28;20046;-85
2024/01/06 01:59:19;;;;;;;9.57;4.80;;;1.80;99.90;;;;;;4140601;28;20046;-84
2024/01/06 02:01:21;;;;;;;8.63;4.68;;;2.30;99.90;;;;;;4140632;28;20043;-85
2024/01/06 02:03:24;;;;;;;9.55;5.15;;;1.70;99.90;;;;;;4141141;28;20049;-85
2024/01/06 02:05:26;;;;;;;8.05;4.38;;;2.50;99.90;;;;;;4152843;28;20037;-85
2024/01/06 02:07:28;;;;;;;8.57;4.18;;;2.80;99.90;;;;;;4154091;28;20091;-85
2024/01/06 02:09:29;;;;;;;9.90;4.68;;;2.20;99.90;;;;;;4153938;28;20046;-84
2024/01/06 02:11:31;;;;;;;7.80;4.32;;;2.30;99.90;;;;;;4153192;28;20126;-85
2024/01/06 02:13:35;;;;;;;11.00;4.88;;;2.40;99.90;;;;;;4146391;28;20057;-84
2024/01/06 02:15:38;;;;;;;7.95;4.95;;;2.40;99.90;;;;;;4137114;28;20046;-84
2024/01/06 02:17:40;;;;;;;11.23;5.85;;;2.70;99.90;;;;;;4142744;28;20033;-85
2024/01/06 02:19:42;;;;;;;9.95;5.70;;;2.60;99.90;;;;;;4153479;28;20050;-85
2024/01/06 02:21:51;;;;;;;12.15;5.15;;;2.80;99.90;;;;;;4153465;28;20054;-85
2024/01/06 02:23:52;;;;;;;;;;;2.10;99.90;;;;;;4153583;28;20038;-85
2024/01/06 02:25:53;;;;;;;11.73;5.32;;;2.80;99.90;;;;;;4147574;28;19922;-85
2024/01/06 02:27:57;;;;;;;9.10;4.70;;;2.60;99.90;;;;;;4143383;28;20046;-85
2024/01/06 02:29:59;;;;;;;7.85;4.88;;;2.70;99.90;;;;;;4134768;28;20107;-85
2024/01/06 02:32:01;;;;;;;11.98;5.35;;;1.50;99.90;;;;;;4139833;28;20054;-85
2024/01/06 02:34:03;;;;;;;11.05;5.40;;;2.40;99.90;;;;;;4140433;28;20046;-85
2024/01/06 02:36:05;;;;;;;9.32;5.22;;;2.40;99.90;;;;;;4139385;28;20050;-85
2024/01/06 02:38:06;;;;;;;9.82;5.10;;;1.60;99.90;;;;;;4122660;28;20050;-85
2024/01/06 02:40:08;;;;;;;9.65;5.35;;;1.50;99.90;;;;;;4139880;28;20058;-85
2024/01/06 02:42:09;;;;;;;9.93;5.00;;;1.50;99.90;;;;;;4140207;28;20053;-85
2024/01/06 02:44:13;;;;;;;9.82;4.80;;;1.50;99.90;;;;;;4141041;28;20100;-85
2024/01/06 02:46:16;;;;;;;15.35;6.15;;;2.30;99.90;;;;;;4140445;28;20042;-85
2024/01/06 02:48:18;;;;;;;10.25;4.90;;;2.10;99.90;;;;;;4140430;28;20046;-85
2024/01/06 02:50:19;;;;;;;8.38;4.35;;;2.00;99.90;;;;;;4140055;28;20042;-85
2024/01/06 02:52:22;;;;;;;9.95;4.57;;;2.10;99.90;;;;;;4140033;28;20043;-85
2024/01/06 02:54:30;;;;;;;8.95;4.32;;;2.10;99.90;;;;;;4140159;28;20392;-85
2024/01/06 02:56:31;;;;;;;8.65;4.53;;;2.60;99.90;;;;;;4139619;28;20039;-85
2024/01/06 02:58:33;;;;;;;12.20;5.45;;;1.40;99.90;;;;;;4134784;28;20099;-84
2024/01/06 03:00:35;;;;;;;8.60;4.70;;;2.50;99.90;;;;;;4124601;28;20051;-85
2024/01/06 03:02:37;;;;;;;11.90;5.15;;;2.60;99.90;;;;;;4124208;28;20046;-85
2024/01/06 03:04:39;;;;;;;12.15;5.43;;;2.10;99.90;;;;;;4123602;28;20050;-85
2024/01/06 03:06:40;;;;;;;9.95;5.80;;;1.50;99.90;;;;;;4128416;28;20114;-85
2024/01/06 03:08:42;;;;;;;10.73;5.60;;;2.00;99.90;;;;;;4138445;28;20059;-85
2024/01/06 03:10:44;;;;;;;14.23;5.97;;;1.90;99.90;;;;;;4129524;28;20046;-85
2024/01/06 03:12:46;;;;;;;11.98;6.20;;;1.50;99.90;;;;;;4140366;28;20046;-85
2024/01/06 03:14:47;;;;;;;11.80;5.97;;;2.00;99.90;;;;;;4139709;28;20046;-85
2024/01/06 03:16:49;;;;;;;9.35;5.50;;;2.50;99.90;;;;;;4140095;28;20479;-85
2024/01/06 03:18:51;;;;;;;10.82;6.20;;;1.90;99.90;;;;;;4139302;28;20053;-85
2024/01/06 03:20:52;;;;;;;13.20;6.68;;;2.10;99.90;;;;;;4140032;28;20059;-85
2024/01/06 03:22:54;;;;;;;12.25;6.10;;;2.60;99.90;;;;;;4138493;28;20081;-85
2024/01/06 03:24:55;;;;;;;12.55;6.05;;;2.00;99.90;;;;;;4138159;28;20092;-85
2024/01/06 03:27:01;;;;;;;13.45;6.43;;;2.00;99.90;;;;;;4138784;28;20057;-85
2024/01/06 03:29:03;;;;;;;13.27;6.88;;;2.80;99.90;;;;;;4139441;28;20046;-85
2024/01/06 03:31:04;;;;;;;18.10;7.03;;;1.40;99.90;;;;;;4138681;28;20042;-85
2024/01/06 03:33:06;;;;;;;13.65;7.18;;;2.50;99.90;;;;;;4139554;28;20047;-85
2024/01/06 03:35:08;;;;;;;13.57;6.53;;;2.00;99.90;;;;;;4139268;28;20073;-85
2024/01/06 03:37:10;;;;;;;12.57;6.72;;;1.40;99.90;;;;;;4139765;28;20047;-85
2024/01/06 03:39:13;;;;;;;13.32;6.03;;;1.40;99.90;;;;;;4139525;28;20074;-85
2024/01/06 03:41:14;;;;;;;12.93;6.72;;;0.90;99.90;;;;;;4122184;28;20050;-85
2024/01/06 03:43:17;;;;;;;12.95;6.43;;;2.00;99.90;;;;;;4137357;28;20077;-85
2024/01/06 03:45:19;;;;;;;11.45;6.22;;;2.00;99.90;;;;;;4139113;28;20054;-85
2024/01/06 03:47:21;;;;;;;11.65;6.40;;;1.40;99.90;;;;;;4140728;28;20054;-85
2024/01/06 03:49:22;;;;;;;13.40;6.55;;;2.10;99.90;;;;;;4122274;28;20050;-85
2024/01/06 03:51:24;;;;;;;12.57;6.78;;;1.80;99.90;;;;;;4139661;28;20156;-85
2024/01/06 03:53:25;;;;;;;12.15;6.63;;;2.70;99.90;;;;;;4139980;28;20052;-85
2024/01/06 03:55:27;;;;;;;13.90;6.63;;;1.70;99.90;;;;;;4139352;28;20088;-85
2024/01/06 03:57:29;;;;;;;14.15;7.70;;;1.90;99.90;;;;;;4122929;28;20047;-85
2024/01/06 03:59:31;;;;;;;12.00;6.05;;;1.60;99.90;;;;;;4139304;28;20047;-85
2024/01/06 04:01:34;;;;;;;13.45;7.03;;;2.20;99.90;;;;;;4139031;28;20058;-85
2024/01/06 04:03:36;;;;;;;11.85;6.30;;;2.00;99.90;;;;;;4139082;28;20046;-85
2024/01/06 04:05:37;;;;;;;12.05;6.38;;;1.40;99.90;;;;;;4139551;28;20055;-85
2024/01/06 04:07:38;;;;;;;13.27;6.68;;;1.20;99.90;;;;;;4111878;28;20488;-86
2024/01/06 04:09:43;;;;;;;13.30;6.10;;;1.70;99.90;;;;;;4139189;28;20042;-85
2024/01/06 04:11:44;;;;;;;12.50;6.07;;;1.50;99.90;;;;;;4139755;28;20117;-84
2024/01/06 04:13:45;;;;;;;12.55;5.95;;;1.40;99.90;;;;;;4139576;28;20105;-84
2024/01/06 04:15:48;;;;;;;9.95;5.85;;;2.30;99.90;;;;;;4139589;28;20050;-84
2024/01/06 04:17:50;;;;;;;11.75;5.97;;;1.40;99.90;;;;;;4139078;28;20053;-84
2024/01/06 04:19:51;;;;;;;12.50;6.32;;;1.50;99.90;;;;;;4139341;28;20050;-84
2024/01/06 04:21:57;;;;;;;13.23;5.82;;;1.50;99.90;;;;;;4140059;28;20066;-84
2024/01/06 04:23:57;;;;;;;11.65;6.22;;;2.60;99.90;;;;;;4142805;28;20047;-84
2024/01/06 04:25:59;;;;;;;10.50;6.57;;;2.30;99.90;;;;;;4131856;28;20051;-84
2024/01/06 04:28:01;;;;;;;11.95;5.65;;;1.10;99.90;;;;;;4139312;28;20078;-84
2024/01/06 04:30:03;;;;;;;12.98;6.20;;;1.90;99.90;;;;;;4141792;28;20050;-84
2024/01/06 04:32:04;;;;;;;11.48;5.63;;;1.40;99.90;;;;;;4141912;28;20043;-84
2024/01/06 04:34:10;;;;;;;12.10;5.95;;;1.40;99.90;;;;;;4124263;28;20054;-84
2024/01/06 04:36:12;;;;;;;12.02;5.47;;;2.00;99.90;;;;;;4142557;28;20057;-84
2024/01/06 04:38:14;;;;;;;10.60;6.40;;;1.40;99.90;;;;;;4142011;28;20047;-84
2024/01/06 04:40:15;;;;;;;12.23;5.50;;;0.80;99.90;;;;;;4142502;28;20062;-84
2024/01/06 04:42:16;;;;;;;10.68;5.55;;;2.80;99.90;;;;;;4141965;28;20109;-84
2024/01/06 04:44:21;;;;;;;9.90;5.50;;;1.90;99.90;;;;;;4141798;28;20077;-84
2024/01/06 04:46:22;;;;;;;15.55;7.22;;;1.30;99.90;;;;;;4141338;28;20070;-84
2024/01/06 04:48:24;;;;;;;13.02;6.78;;;1.70;99.90;;;;;;4126323;28;20074;-84
2024/01/06 04:50:33;;;;;;;12.30;5.80;;;1.40;99.90;;;;;;4126050;28;20047;-84
2024/01/06 04:52:39;;;;;;;13.73;6.55;;;1.60;99.90;;;;;;4126831;28;20101;-84
2024/01/06 04:54:42;;;;;;;13.85;6.38;;;2.50;99.90;;;;;;4125993;28;20057;-84
2024/01/06 04:56:44;;;;;;;11.25;5.95;;;0.90;99.90;;;;;;4126265;28;20054;-84
2024/01/06 04:58:45;;;;;;;11.70;5.63;;;2.30;99.90;;;;;;4125123;28;20407;-84
2024/01/06 05:00:45;;;;;;;13.23;6.15;;;1.20;99.90;;;;;;4107803;28;20043;-84
2024/01/06 05:02:46;;;;;;;10.63;5.43;;;1.20;99.90;;;;;;4125544;28;20065;-84
2024/01/06 05:04:49;;;;;;;11.05;6.13;;;1.20;99.90;;;;;;4137794;28;20070;-84
2024/01/06 05:06:52;;;;;;;13.13;6.07;;;2.10;99.90;;;;;;4158984;28;20045;-84
2024/01/06 05:08:53;;;;;;;10.40;5.50;;;2.00;99.90;;;;;;4157674;28;20042;-84
2024/01/06 05:10:55;;;;;;;10.02;5.00;;;2.50;99.90;;;;;;4158024;28;20042;-84
2024/01/06 05:12:56;;;;;;;13.13;5.55;;;1.90;99.90;;;;;;4146965;28;20078;-84
2024/01/06 05:14:58;;;;;;;11.23;5.75;;;2.50;99.90;;;;;;4141693;28;20045;-84
2024/01/06 05:17:00;;;;;;;12.40;5.78;;;1.40;99.90;;;;;;4141443;28;20435;-84
2024/01/06 05:19:02;;;;;;;11.38;5.43;;;2.10;99.90;;;;;;4141096;28;20031;-85
2024/01/06 05:21:03;;;;;;;12.40;5.80;;;1.50;99.90;;;;;;4140462;28;20050;-85
2024/01/06 05:23:05;;;;;;;9.30;5.90;;;1.40;99.90;;;;;;4135501;28;20134;-84
2024/01/06 05:25:07;;;;;;;11.40;5.32;;;2.70;99.90;;;;;;4124247;28;20050;-84
2024/01/06 05:27:08;;;;;;;11.38;5.68;;;1.40;99.90;;;;;;4124583;28;20078;-84
2024/01/06 05:29:10;;;;;;;10.10;5.10;;;2.00;99.90;;;;;;4135922;28;20077;-84
2024/01/06 05:31:13;;;;;;;11.18;5.38;;;1.50;99.90;;;;;;4157431;28;20554;-85
2024/01/06 05:33:15;;;;;;;12.80;5.88;;;1.50;99.90;;;;;;4156318;28;20042;-84
2024/01/06 05:35:17;;;;;;;11.43;4.88;;;0.60;99.90;;;;;;4157175;28;20049;-84
2024/01/06 05:37:23;;;;;;;9.85;5.40;;;2.70;99.90;;;;;;4150564;28;20053;-84
2024/01/06 05:39:25;;;;;;;10.98;4.95;;;1.20;99.90;;;;;;4124448;28;20043;-84
2024/01/06 05:41:27;;;;;;;10.35;5.18;;;2.10;99.90;;;;;;4124633;28;20042;-84
2024/01/06 05:43:27;;;;;;;13.70;5.57;;;1.60;99.90;;;;;;4123977;28;20051;-84
2024/01/06 05:45:31;;;;;;;8.57;5.28;;;2.50;99.90;;;;;;4124013;28;20084;-84
2024/01/06 05:47:32;;;;;;;9.13;5.13;;;2.70;99.90;;;;;;4106964;28;20062;-84
2024/01/06 05:49:33;;;;;;;8.95;5.00;;;2.20;99.90;;;;;;4106754;29;20532;-84
2024/01/06 05:51:33;;;;;;;11.02;5.38;;;2.60;99.90;;;;;;4107189;29;20051;-84
2024/01/06 05:53:36;;;;;;;10.88;5.72;;;2.90;99.90;;;;;;4124889;28;20488;-84
2024/01/06 05:55:37;;;;;;;9.82;5.63;;;2.10;99.90;;;;;;4124944;28;20049;-84
2024/01/06 05:57:39;;;;;;;8.77;5.10;;;1.50;99.90;;;;;;4124009;28;20074;-84
2024/01/06 05:59:41;;;;;;;10.52;6.00;;;1.40;99.90;;;;;;4124760;28;20046;-84
2024/01/06 06:01:43;;;;;;;10.88;5.88;;;2.40;99.90;;;;;;4124086;28;20081;-84
2024/01/06 06:03:46;;;;;;;11.85;6.13;;;1.50;99.90;;;;;;4124325;28;20047;-84
2024/01/06 06:05:48;;;;;;;10.23;5.82;;;1.50;99.90;;;;;;4124174;28;20121;-84
2024/01/06 06:07:49;;;;;;;13.25;6.75;;;2.50;99.90;;;;;;4123496;28;20054;-84
2024/01/06 06:09:52;;;;;;;11.35;5.28;;;1.80;99.90;;;;;;4125754;28;20050;-84
2024/01/06 06:11:55;;;;;;;11.68;5.75;;;2.00;99.90;;;;;;4122340;28;20127;-84
2024/01/06 06:13:58;;;;;;;9.38;5.35;;;1.50;99.90;;;;;;4139598;28;20054;-84
2024/01/06 06:15:59;;;;;;;14.15;6.18;;;2.80;99.90;;;;;;4140545;28;20042;-84
2024/01/06 06:18:00;;;;;;;11.13;5.55;;;2.20;99.90;;;;;;4139615;28;20202;-84
2024/01/06 06:20:01;;;;;;;9.35;5.93;;;2.60;99.90;;;;;;4122251;28;20058;-84
2024/01/06 06:22:01;;;;;;;11.18;5.95;;;1.70;99.90;;;;;;4139128;28;20582;-84
2024/01/06 06:24:04;;;;;;;10.85;5.35;;;2.20;99.90;;;;;;4140301;28;20056;-84
2024/01/06 06:26:06;;;;;;;14.30;7.00;;;1.60;99.90;;;;;;4140610;28;20104;-84
2024/01/06 06:28:06;;;;;;;12.93;6.13;;;2.10;99.90;;;;;;4140117;28;20100;-84
2024/01/06 06:30:08;;;;;;;12.82;6.50;;;1.70;99.90;;;;;;4139283;28;20054;-83
2024/01/06 06:32:10;;;;;;;12.65;7.10;;;2.20;99.90;;;;;;4122173;28;20093;-84
2024/01/06 06:34:12;;;;;;;13.32;7.22;;;1.70;99.90;;;;;;4139443;28;20052;-84
2024/01/06 06:36:14;;;;;;;11.70;6.60;;;1.40;99.90;;;;;;4106283;29;20135;-84
2024/01/06 06:38:16;;;;;;;13.13;6.50;;;2.00;99.90;;;;;;4139568;28;20050;-84
2024/01/06 06:40:17;;;;;;;17.38;7.10;;;2.50;99.90;;;;;;4139310;28;20045;-84
2024/01/06 06:42:19;;;;;;;11.55;6.55;;;2.40;99.90;;;;;;4139547;28;20427;-84
2024/01/06 06:44:20;;;;;;;12.43;7.00;;;2.80;99.90;;;;;;4138829;28;20050;-84
2024/01/06 06:46:23;;;;;;;12.50;6.75;;;2.70;99.90;;;;;;4138811;28;20077;-84
2024/01/06 06:48:25;;;;;;;13.27;7.25;;;1.00;99.90;;;;;;4139018;28;20094;-84
2024/01/06 06:50:26;;;;;;;18.55;7.85;;;2.70;99.90;;;;;;4139678;28;20053;-84
2024/01/06 06:52:27;;;;;;;16.25;7.45;;;2.60;99.90;;;;;;4139558;28;20042;-83
2024/01/06 06:54:29;;;;;;;16.05;7.82;;;1.20;99.90;;;;;;4139348;28;20049;-84
2024/01/06 06:56:31;;;;;;;14.32;7.43;;;1.90;99.90;;;;;;4139059;28;20411;-84
2024/01/06 06:58:33;;;;;;;13.50;7.20;;;2.60;99.90;;;;;;4139065;28;20042;-84
2024/01/06 07:00:35;;;;;;;13.45;7.32;;;1.70;99.90;;;;;;4139317;28;20483;-84
2024/01/06 07:02:36;;;;;;;14.07;7.68;;;0.80;99.90;;;;;;4139142;28;20057;-84
2024/01/06 07:04:38;;;;;;;15.70;7.97;;;0.80;99.90;;;;;;4138715;28;20052;-84
2024/01/06 07:06:40;;;;;;;14.57;7.47;;;2.30;99.90;;;;;;4138749;28;20474;-84
2024/01/06 07:08:42;;;;;;;11.63;6.18;;;2.70;99.90;;;;;;4132233;28;20043;-84
2024/01/06 07:10:45;;;;;;;14.13;7.97;;;2.40;99.90;;;;;;4122741;28;20061;-84
2024/01/06 07:12:47;;;;;;;14.38;7.43;;;2.10;99.90;;;;;;4122769;28;20051;-84
2024/01/06 07:14:50;;;;;;;15.65;7.68;;;2.20;99.90;;;;;;4122824;28;20043;-83
2024/01/06 07:16:51;;;;;;;13.07;7.22;;;1.40;99.90;;;;;;4123048;28;20065;-83
2024/01/06 07:18:53;;;;;;;14.23;7.30;;;3.00;99.90;;;;;;4122401;28;20050;-84
2024/01/06 07:20:54;;;;;;;16.13;7.45;;;1.60;99.90;;;;;;4121881;28;20058;-84
2024/01/06 07:22:55;;;;;;;18.08;7.93;;;2.70;99.90;;;;;;4124653;28;20095;-83
2024/01/06 07:25:03;;;;;;;15.35;7.57;;;1.50;99.90;;;;;;4137146;28;20046;-84
2024/01/06 07:27:06;;;;;;;14.93;7.68;;;1.70;99.90;;;;;;4130953;28;20043;-84
2024/01/06 07:29:08;;;;;;;15.57;8.07;;;2.20;99.90;;;;;;4150293;28;20085;-84
2024/01/06 07:31:09;;;;;;;16.92;7.70;;;1.50;99.90;;;;;;4153147;28;20069;-83
2024/01/06 07:33:12;;;;;;;16.67;8.13;;;1.70;99.90;;;;;;4152400;28;20046;-82
2024/01/06 07:35:14;;;;;;;14.52;8.27;;;1.60;99.90;;;;;;4152152;28;20022;-83
2024/01/06 07:37:15;;;;;;;14.02;7.53;;;2.50;99.90;;;;;;4150411;28;20586;-84
2024/01/06 07:39:17;;;;;;;16.27;8.48;;;1.70;99.90;;;;;;4138347;28;20050;-84
2024/01/06 07:41:18;;;;;;;15.35;8.48;;;2.30;99.90;;;;;;4139055;28;20049;-84
2024/01/06 07:43:21;;;;;;;18.98;8.52;;;1.60;99.90;;;;;;4138634;28;20117;-84
2024/01/06 07:45:23;;;;;;;15.82;7.10;;;2.50;99.90;;;;;;4138340;28;20042;-84
2024/01/06 07:47:26;;;;;;;14.10;7.30;;;2.50;99.90;;;;;;4138504;28;20057;-84
2024/01/06 07:49:27;;;;;;;15.82;8.00;;;2.40;99.90;;;;;;4138837;28;20046;-84
2024/01/06 07:51:29;;;;;;;17.23;8.20;;;1.60;99.90;;;;;;4134932;28;20069;-84
2024/01/06 07:53:31;;;;;;;17.73;9.90;;;2.60;99.90;;;;;;4138043;28;20082;-84
2024/01/06 07:55:32;;;;;;;14.48;7.90;;;1.70;99.90;;;;;;4137962;28;20046;-84
2024/01/06 07:57:34;;;;;;;17.92;8.73;;;2.70;99.90;;;;;;4142059;28;20046;-84
2024/01/06 07:59:35;;;;;;;16.30;8.52;;;2.70;99.90;;;;;;4141823;28;20081;-84
2024/01/06 08:01:35;;;;;;;15.77;8.50;;;1.80;99.90;;;;;;4141534;28;20483;-84
2024/01/06 08:03:37;;;;;;;14.50;8.10;;;2.40;99.90;;;;;;4141547;28;20050;-84
2024/01/06 08:05:40;;;;;;;16.38;8.82;;;2.50;99.90;;;;;;4123828;28;20055;-83
2024/01/06 08:07:40;;;;;;;16.67;8.65;;;1.70;99.90;;;;;;4127463;28;20047;-84
2024/01/06 08:09:43;;;;;;;16.90;8.63;;;1.50;99.90;;;;;;4135837;28;20438;-84
2024/01/06 08:11:48;;;;;;;15.07;7.90;;;1.60;99.90;;;;;;4141380;28;20053;-84
2024/01/06 08:13:49;;;;;;;15.85;8.48;;;2.80;99.90;;;;;;4141425;28;20443;-84
2024/01/06 08:15:50;;;;;;;16.58;8.68;;;2.20;99.90;;;;;;4124114;28;20512;-84
2024/01/06 08:17:52;;;;;;;13.38;7.70;;;2.40;99.90;;;;;;4141582;28;20042;-84
2024/01/06 08:19:54;;;;;;;14.07;8.20;;;3.00;99.90;;;;;;4139848;28;20050;-84
2024/01/06 08:21:54;;;;;;;17.38;8.45;;;2.60;99.90;;;;;;4140935;28;20058;-84
2024/01/06 08:23:56;;;;;;;14.13;7.78;;;2.30;99.90;;;;;;4141719;28;20034;-84
2024/01/06 08:25:58;;;;;;;16.77;7.95;;;2.70;99.90;;;;;;4141376;28;20046;-84
2024/01/06 08:28:01;;;;;;;21.08;9.45;;;2.90;99.90;;;;;;4140669;28;20049;-83
2024/01/06 08:30:09;;;;;;;16.48;8.90;;;1.90;99.90;;;;;;4141641;28;20046;-83
2024/01/06 08:32:16;;;;;;;18.17;8.15;;;1.70;99.90;;;;;;4141208;28;20104;-84
2024/01/06 08:34:18;;;;;;;17.77;7.80;;;1.90;99.90;;;;;;4131929;28;20046;-84
2024/01/06 08:36:21;;;;;;;17.23;8.30;;;3.00;99.90;;;;;;4126817;28;20047;-83
2024/01/06 08:38:23;;;;;;;17.05;8.32;;;3.90;99.90;;;;;;4140956;28;20069;-83
2024/01/06 08:40:25;;;;;;;14.70;8.10;;;2.00;99.90;;;;;;4124211;28;20061;-83
2024/01/06 08:42:27;;;;;;;15.50;7.65;;;1.80;99.90;;;;;;4141151;28;20054;-83
2024/01/06 08:44:29;;;;;;;15.95;8.65;;;1.80;99.90;;;;;;4141553;28;20050;-83
2024/01/06 08:46:33;;;;;;;17.63;9.20;;;2.80;99.90;;;;;;4141444;28;20046;-83
2024/01/06 08:48:41;;;;;;;17.45;8.32;;;2.40;99.90;;;;;;4141157;28;20126;-83
2024/01/06 08:50:41;;;;;;;15.95;7.90;;;2.80;99.90;;;;;;4124632;28;20053;-83
2024/01/06 08:52:43;;;;;;;17.05;8.30;;;2.40;99.90;;;;;;4141818;28;20038;-83
2024/01/06 08:54:46;;;;;;;18.00;9.07;;;2.90;99.90;;;;;;4140613;28;20048;-83
2024/01/06 08:56:52;;;;;;;16.42;7.70;;;1.80;99.90;;;;;;4123863;28;20158;-83
2024/01/06 08:58:55;;;;;;;18.83;8.25;;;2.60;99.90;;;;;;4124285;28;20050;-83
2024/01/06 09:00:56;;;;;;;15.38;8.43;;;2.10;99.90;;;;;;4140842;28;20054;-83
2024/01/06 09:02:59;;;;;;;14.10;7.90;;;2.40;99.90;;;;;;4141012;28;20038;-83
2024/01/06 09:05:01;;;;;;;14.00;7.55;;;1.40;99.90;;;;;;4141772;28;20551;-83
2024/01/06 09:07:05;;;;;;;19.05;8.27;;;2.40;99.90;;;;;;4141080;28;20050;-83
2024/01/06 09:09:08;;;;;;;15.85;8.30;;;1.90;99.90;;;;;;4141315;28;20046;-83
2024/01/06 09:11:09;;;;;;;14.13;7.22;;;1.90;99.90;;;;;;4141917;28;20479;-82
2024/01/06 09:13:10;;;;;;;14.13;6.82;;;1.60;99.90;;;;;;4140881;28;20042;-83
2024/01/06 09:15:12;;;;;;;15.32;7.85;;;1.00;99.90;;;;;;4140228;28;20046;-83
2024/01/06 09:17:16;;;;;;;15.25;7.70;;;1.70;99.90;;;;;;4139986;28;20046;-82
2024/01/06 09:19:19;;;;;;;14.40;7.40;;;3.00;99.90;;;;;;4140130;28;20119;-82
2024/01/06 09:21:20;;;;;;;13.45;7.63;;;1.50;99.90;;;;;;4140773;28;20396;-82
2024/01/06 09:23:22;;;;;;;16.20;8.13;;;1.20;99.90;;;;;;4140270;28;20065;-82
2024/01/06 09:25:25;;;;;;;14.93;6.88;;;3.00;99.90;;;;;;4140006;28;20067;-83
2024/01/06 09:27:26;;;;;;;18.52;8.13;;;1.90;99.90;;;;;;4138543;28;20042;-82
2024/01/06 09:29:28;;;;;;;16.25;7.30;;;3.00;99.90;;;;;;4139382;28;20050;-82
2024/01/06 09:31:30;;;;;;;15.25;7.60;;;2.50;99.90;;;;;;4140103;28;20042;-82
2024/01/06 09:33:33;;;;;;;15.13;7.95;;;1.40;99.90;;;;;;4137069;28;20547;-82
2024/01/06 09:35:36;;;;;;;19.38;8.55;;;2.40;99.90;;;;;;4123756;28;20101;-82
2024/01/06 09:37:37;;;;;;;15.52;7.80;;;1.90;99.90;;;;;;4123673;28;20057;-82
2024/01/06 09:39:39;;;;;;;21.02;8.77;;;2.10;99.90;;;;;;4122752;28;20046;-90
2024/01/06 09:41:41;;;;;;;19.20;10.38;;;3.10;99.90;;;;;;4125340;28;20046;-81
2024/01/06 09:43:44;;;;;;;15.70;7.65;;;1.90;99.90;;;;;;4132557;28;20076;-81
2024/01/06 09:45:57;;;;;;;16.65;7.70;;;2.40;99.90;;;;;;4141715;28;20471;-81
2024/01/06 09:48:05;;;;;;;17.80;8.63;;;3.40;99.90;;;;;;4134396;28;20026;-80
2024/01/06 09:50:09;;;;;;;14.37;7.30;;;2.60;99.90;;;;;;4148351;28;20056;-82
2024/01/06 09:52:17;;;;;;;15.52;7.15;;;1.90;99.90;;;;;;4146762;28;20046;-82
2024/01/06 09:54:24;;;;;;;15.30;7.30;;;2.60;99.90;;;;;;4129445;28;20515;-82
2024/01/06 09:56:29;;;;;;;18.95;7.40;;;3.30;99.90;;;;;;4145750;28;20054;-81
2024/01/06 09:58:34;;;;;;;14.80;7.28;;;2.50;99.90;;;;;;4141702;28;20042;-81
2024/01/06 10:00:34;;;;;;;16.85;7.32;;;2.60;99.90;;;;;;4142518;28;20049;-81
2024/01/06 10:02:36;;;;;;;13.55;7.82;;;3.00;99.90;;;;;;4145330;28;20046;-82
2024/01/06 10:04:37;;;;;;;18.35;7.43;;;3.00;99.90;;;;;;4140836;28;20046;-81
2024/01/06 10:06:38;;;;;;;14.27;8.20;;;2.30;99.90;;;;;;4125804;28;20043;-81
2024/01/06 10:08:44;;;;;;;15.38;8.07;;;2.70;99.90;;;;;;4124426;28;20103;-81
2024/01/06 10:10:46;;;;;;;13.60;7.15;;;3.20;99.90;;;;;;4123004;28;20054;-81
2024/01/06 10:12:47;;;;;;;14.10;7.70;;;2.00;99.90;;;;;;4123190;28;20229;-82
2024/01/06 10:14:48;;;;;;;17.15;8.02;;;2.70;99.90;;;;;;4123497;28;20039;-81
2024/01/06 10:16:52;;;;;;;15.63;8.52;;;2.10;99.90;;;;;;4125637;28;20084;-81
2024/01/06 10:18:53;;;;;;;14.35;7.13;;;2.40;99.90;;;;;;4138701;28;20042;-81
2024/01/06 10:20:54;;;;;;;14.45;7.50;;;2.10;99.90;;;;;;4137743;28;20052;-81
2024/01/06 10:22:55;;;;;;;15.88;7.43;;;3.30;99.90;;;;;;4138808;28;20054;-81
2024/01/06 10:24:57;;;;;;;13.95;7.50;;;2.90;99.90;;;;;;4138480;28;20050;-81
2024/01/06 10:26:59;;;;;;;13.70;7.47;;;3.40;99.90;;;;;;4138652;28;20030;-81
2024/01/06 10:29:02;;;;;;;17.65;7.60;;;2.80;99.90;;;;;;4148820;28;20051;-80
2024/01/06 10:31:04;;;;;;;14.63;7.93;;;2.60;99.90;;;;;;4146035;28;20042;-80
2024/01/06 10:33:13;;;;;;;13.25;7.50;;;2.70;99.90;;;;;;4143245;28;20570;-81
2024/01/06 10:35:16;;;;;;;14.23;7.32;;;3.30;99.90;;;;;;4144517;28;20121;-81
2024/01/06 10:37:18;;;;;;;15.27;7.70;;;2.20;99.90;;;;;;4148451;28;20058;-81
2024/01/06 10:39:21;;;;;;;19.13;8.20;;;2.40;99.90;;;;;;4148141;28;20069;-82